Time;durP1;ratioP1;P1;durP2;ratioP2;P2;SDS_P1;SDS_P2;PMS_P1;PMS_P2;Temp;Humidity;BMP_temperature;BMP_pressure;BME280_temperature;BME280_humidity;BME280_pressure;Samples;Min_cycle;Max_cycle;Signal;HPM_P1;HPM_P2
2021/09/19 00:01:15;;;;;;;6.45;3.22;;;13.50;94.50;;;;;;5082801;28;20107;-66
2021/09/19 00:03:41;;;;;;;5.40;3.20;;;13.40;94.50;;;;;;5081344;28;20386;-65
2021/09/19 00:06:07;;;;;;;7.30;3.28;;;13.50;94.40;;;;;;5083025;28;20111;-66
2021/09/19 00:08:33;;;;;;;8.20;3.67;;;13.40;94.10;;;;;;5082622;28;20032;-66
2021/09/19 00:10:59;;;;;;;6.05;3.25;;;13.40;94.30;;;;;;5082872;28;20028;-66
2021/09/19 00:13:25;;;;;;;6.25;2.72;;;13.40;94.10;;;;;;5086677;28;20508;-69
2021/09/19 00:15:51;;;;;;;6.57;3.00;;;13.40;94.20;;;;;;5079560;28;20053;-66
2021/09/19 00:18:17;;;;;;;4.43;2.70;;;13.40;94.20;;;;;;5082075;28;20032;-67
2021/09/19 00:20:44;;;;;;;5.38;3.08;;;13.40;94.30;;;;;;5082402;28;20160;-67
2021/09/19 00:23:10;;;;;;;5.05;3.10;;;13.40;94.10;;;;;;5083633;28;20486;-66
2021/09/19 00:25:36;;;;;;;6.57;3.03;;;13.40;94.40;;;;;;5087007;28;20035;-66
2021/09/19 00:28:03;;;;;;;7.85;3.40;;;13.40;94.50;;;;;;5083817;28;20021;-66
2021/09/19 00:30:29;;;;;;;11.55;3.60;;;13.40;94.50;;;;;;5086116;28;20036;-66
2021/09/19 00:32:55;;;;;;;5.07;3.15;;;13.30;94.60;;;;;;5088531;28;20070;-67
2021/09/19 00:35:21;;;;;;;8.30;3.47;;;13.30;94.60;;;;;;5084894;28;20490;-66
2021/09/19 00:37:46;;;;;;;5.57;3.65;;;13.30;94.60;;;;;;5085331;28;20019;-66
2021/09/19 00:40:13;;;;;;;5.50;3.30;;;13.30;94.70;;;;;;5085810;28;20032;-66
2021/09/19 00:42:39;;;;;;;7.50;3.28;;;13.30;94.60;;;;;;5085980;28;20501;-66
2021/09/19 00:45:25;;;;;;;5.28;3.20;;;13.30;94.50;;;;;;5084319;28;20497;-66
2021/09/19 00:47:51;;;;;;;6.57;3.60;;;13.30;94.60;;;;;;5085145;28;20058;-67
2021/09/19 00:50:21;;;;;;;6.60;2.88;;;13.30;94.60;;;;;;5080712;28;20024;-66
2021/09/19 00:52:48;;;;;;;5.00;3.50;;;13.20;94.50;;;;;;5085971;28;20432;-66
2021/09/19 00:55:15;;;;;;;5.95;3.13;;;13.20;94.40;;;;;;5085282;28;20389;-66
2021/09/19 00:57:54;;;;;;;4.05;3.10;;;13.20;94.60;;;;;;5084582;28;20102;-66
2021/09/19 01:00:26;;;;;;;5.70;3.38;;;13.20;94.70;;;;;;5086552;28;20550;-66
2021/09/19 01:02:53;;;;;;;7.07;3.17;;;13.20;94.80;;;;;;5083246;28;20041;-66
2021/09/19 01:05:20;;;;;;;5.32;2.95;;;13.20;94.90;;;;;;5083039;28;20103;-66
2021/09/19 01:07:48;;;;;;;5.13;3.40;;;13.20;94.90;;;;;;5084361;28;20081;-67
2021/09/19 01:10:15;;;;;;;7.75;3.58;;;13.20;94.90;;;;;;5087682;28;20051;-66
2021/09/19 01:12:42;;;;;;;6.78;3.22;;;13.10;95.00;;;;;;5085440;28;20654;-66
2021/09/19 01:15:09;;;;;;;8.40;3.60;;;13.10;94.90;;;;;;5084492;28;20123;-66
2021/09/19 01:17:39;;;;;;;6.03;2.97;;;13.10;95.00;;;;;;5084245;28;20020;-66
2021/09/19 01:20:09;;;;;;;6.45;3.35;;;13.10;95.00;;;;;;5087179;28;20028;-66
2021/09/19 01:22:37;;;;;;;6.00;3.22;;;13.10;95.00;;;;;;5086819;28;20030;-66
2021/09/19 01:25:08;;;;;;;8.25;3.47;;;13.10;95.00;;;;;;5083408;28;20050;-66
2021/09/19 01:27:34;;;;;;;8.50;3.20;;;13.10;95.00;;;;;;5083695;28;20024;-67
2021/09/19 01:30:00;;;;;;;6.30;3.70;;;13.10;94.90;;;;;;5085088;28;20020;-66
2021/09/19 01:32:25;;;;;;;6.70;3.20;;;13.10;95.10;;;;;;5084273;28;20044;-66
2021/09/19 01:34:52;;;;;;;4.70;2.80;;;13.10;95.20;;;;;;5084691;28;20091;-66
2021/09/19 01:37:19;;;;;;;5.20;3.38;;;13.10;95.30;;;;;;5084093;28;20028;-66
2021/09/19 01:39:45;;;;;;;5.07;3.20;;;13.10;95.30;;;;;;5087046;28;20086;-66
2021/09/19 01:42:12;;;;;;;6.55;3.30;;;13.10;95.30;;;;;;5086111;28;20478;-67
2021/09/19 01:44:39;;;;;;;5.20;3.25;;;13.00;95.30;;;;;;5082859;28;20084;-66
2021/09/19 01:47:05;;;;;;;6.97;2.75;;;13.00;95.40;;;;;;5088008;28;20025;-66
2021/09/19 01:49:31;;;;;;;5.97;3.10;;;13.00;95.50;;;;;;5086014;28;20024;-66
2021/09/19 01:51:58;;;;;;;7.32;3.22;;;13.00;95.50;;;;;;5079118;28;20508;-66
2021/09/19 01:54:24;;;;;;;5.07;3.05;;;13.00;95.60;;;;;;5080332;28;20549;-66
2021/09/19 01:56:50;;;;;;;6.93;3.78;;;13.00;95.60;;;;;;5080998;28;20032;-66
2021/09/19 01:59:16;;;;;;;6.72;3.10;;;13.00;95.60;;;;;;5082086;28;20101;-67
2021/09/19 02:01:42;;;;;;;5.43;3.22;;;13.00;95.70;;;;;;5082150;28;20036;-66
2021/09/19 02:04:07;;;;;;;8.05;3.85;;;13.00;95.70;;;;;;5081850;28;20466;-65
2021/09/19 02:06:33;;;;;;;6.05;3.10;;;13.00;95.80;;;;;;5083064;28;20510;-65
2021/09/19 02:08:59;;;;;;;5.85;3.50;;;13.10;95.80;;;;;;5086254;28;20028;-67
2021/09/19 02:11:25;;;;;;;5.28;3.30;;;13.10;95.90;;;;;;5084076;28;20695;-66
2021/09/19 02:13:51;;;;;;;4.80;2.97;;;13.10;95.80;;;;;;5082476;28;20027;-67
2021/09/19 02:16:20;;;;;;;7.97;3.38;;;13.20;95.90;;;;;;5085144;28;20027;-66
2021/09/19 02:18:48;;;;;;;5.35;3.10;;;13.10;95.90;;;;;;5082484;28;20028;-66
2021/09/19 02:21:14;;;;;;;3.85;2.67;;;13.20;95.90;;;;;;5083965;28;20116;-67
2021/09/19 02:23:40;;;;;;;6.38;3.38;;;13.20;95.90;;;;;;5081406;28;20032;-66
2021/09/19 02:26:07;;;;;;;5.85;3.20;;;13.20;95.80;;;;;;5083820;28;20036;-66
2021/09/19 02:28:33;;;;;;;4.95;3.35;;;13.20;95.90;;;;;;5084047;28;20082;-67
2021/09/19 02:31:00;;;;;;;5.13;2.97;;;13.30;96.00;;;;;;5086183;28;20116;-66
2021/09/19 02:33:26;;;;;;;4.93;3.08;;;13.30;96.00;;;;;;5084912;28;20036;-66
2021/09/19 02:35:51;;;;;;;5.30;3.20;;;13.30;96.00;;;;;;5083006;28;20036;-67
2021/09/19 02:38:17;;;;;;;6.70;3.42;;;13.40;95.90;;;;;;5080464;28;20103;-66
2021/09/19 02:40:43;;;;;;;6.88;3.67;;;13.40;96.10;;;;;;5082750;28;20084;-66
2021/09/19 02:43:09;;;;;;;5.15;3.08;;;13.40;95.70;;;;;;5082882;28;22350;-66
2021/09/19 02:45:35;;;;;;;5.95;3.50;;;13.40;95.80;;;;;;5083072;28;20058;-66
2021/09/19 02:48:00;;;;;;;3.45;2.53;;;13.40;95.70;;;;;;5087897;28;20047;-66
2021/09/19 02:50:26;;;;;;;4.85;3.10;;;13.50;95.50;;;;;;5083996;28;20032;-67
2021/09/19 02:52:52;;;;;;;5.25;3.10;;;13.40;95.50;;;;;;5080093;28;20028;-66
2021/09/19 02:55:20;;;;;;;5.32;2.95;;;13.50;95.60;;;;;;5082685;28;20077;-66
2021/09/19 02:57:46;;;;;;;6.28;3.20;;;13.50;95.70;;;;;;5082779;28;20126;-66
2021/09/19 03:00:15;;;;;;;5.85;3.47;;;13.50;95.60;;;;;;5083177;28;20029;-66
2021/09/19 03:02:42;;;;;;;5.05;2.97;;;13.50;95.60;;;;;;5083784;28;20366;-66
2021/09/19 03:05:09;;;;;;;5.85;3.03;;;13.50;95.60;;;;;;5082594;28;20079;-67
2021/09/19 03:07:34;;;;;;;5.32;3.13;;;13.50;95.50;;;;;;5083542;28;20024;-67
2021/09/19 03:10:00;;;;;;;5.97;2.97;;;13.50;95.40;;;;;;5081827;28;20069;-66
2021/09/19 03:12:26;;;;;;;5.13;3.00;;;13.50;95.30;;;;;;5082974;28;20043;-66
2021/09/19 03:14:51;;;;;;;4.85;2.67;;;13.50;95.60;;;;;;5084703;28;20127;-66
2021/09/19 03:17:17;;;;;;;4.38;2.85;;;13.50;95.30;;;;;;5081793;28;20365;-66
2021/09/19 03:19:43;;;;;;;6.25;3.50;;;13.50;95.20;;;;;;5083123;28;20047;-67
2021/09/19 03:22:09;;;;;;;4.55;3.33;;;13.50;95.20;;;;;;5082046;28;20039;-66
2021/09/19 03:24:34;;;;;;;4.38;2.90;;;13.50;95.30;;;;;;5084517;28;20038;-66
2021/09/19 03:27:00;;;;;;;5.25;2.65;;;13.40;95.20;;;;;;5083863;28;20035;-66
2021/09/19 03:29:26;;;;;;;4.95;2.83;;;13.40;95.20;;;;;;5084551;28;20024;-66
2021/09/19 03:31:52;;;;;;;6.03;3.33;;;13.40;95.20;;;;;;5084895;28;20085;-66
2021/09/19 03:34:17;;;;;;;5.10;3.17;;;13.50;95.20;;;;;;5088774;28;20039;-66
2021/09/19 03:36:43;;;;;;;5.07;3.00;;;13.50;95.10;;;;;;5083748;28;20025;-66
2021/09/19 03:39:09;;;;;;;5.65;3.10;;;13.50;95.10;;;;;;5080543;28;20439;-66
2021/09/19 03:41:35;;;;;;;4.30;2.83;;;13.50;95.00;;;;;;5081548;28;20059;-65
2021/09/19 03:44:01;;;;;;;3.75;2.70;;;13.50;94.90;;;;;;5084113;28;20375;-66
2021/09/19 03:46:27;;;;;;;4.55;2.85;;;13.60;95.00;;;;;;5083578;28;20117;-66
2021/09/19 03:48:53;;;;;;;5.13;2.97;;;13.50;95.10;;;;;;5081358;28;20400;-66
2021/09/19 03:51:19;;;;;;;5.00;3.15;;;13.50;95.10;;;;;;5080137;28;20028;-67
2021/09/19 03:53:45;;;;;;;5.18;3.15;;;13.50;95.00;;;;;;5082513;28;20090;-66
2021/09/19 03:56:11;;;;;;;5.35;2.97;;;13.50;95.00;;;;;;5080025;28;20036;-66
2021/09/19 03:58:37;;;;;;;4.97;2.78;;;13.50;94.90;;;;;;5079750;28;20058;-66
2021/09/19 04:01:03;;;;;;;5.78;2.63;;;13.50;94.90;;;;;;5084429;28;20077;-66
2021/09/19 04:03:29;;;;;;;5.20;2.80;;;13.50;94.80;;;;;;5088082;28;20038;-66
2021/09/19 04:05:55;;;;;;;3.85;2.88;;;13.50;94.90;;;;;;5084205;28;20040;-66
2021/09/19 04:08:20;;;;;;;6.15;3.03;;;13.50;94.80;;;;;;5086121;28;20035;-66
2021/09/19 04:10:46;;;;;;;5.45;2.83;;;13.50;94.90;;;;;;5083451;28;20024;-66
2021/09/19 04:13:12;;;;;;;4.40;2.90;;;13.50;94.90;;;;;;5081039;28;20086;-66
2021/09/19 04:15:37;;;;;;;8.00;2.97;;;13.60;94.70;;;;;;5083332;28;20047;-66
2021/09/19 04:18:04;;;;;;;6.32;3.25;;;13.60;94.80;;;;;;5084443;28;20482;-66
2021/09/19 04:20:31;;;;;;;4.72;2.42;;;13.50;94.80;;;;;;5084257;28;20032;-66
2021/09/19 04:22:57;;;;;;;4.55;2.80;;;13.50;94.40;;;;;;5086838;28;20063;-67
2021/09/19 04:25:23;;;;;;;4.63;2.65;;;13.50;94.30;;;;;;5086645;28;20056;-67
2021/09/19 04:27:49;;;;;;;6.40;3.00;;;13.40;94.30;;;;;;5084224;28;20044;-66
2021/09/19 04:30:15;;;;;;;3.92;2.72;;;13.50;94.50;;;;;;5087394;28;20024;-66
2021/09/19 04:32:40;;;;;;;4.68;3.00;;;13.50;94.50;;;;;;5085578;28;20037;-66
2021/09/19 04:35:07;;;;;;;5.88;2.75;;;13.50;94.50;;;;;;5085231;28;20028;-66
2021/09/19 04:37:32;;;;;;;5.05;2.60;;;13.50;94.30;;;;;;5088227;28;20028;-66
2021/09/19 04:39:58;;;;;;;5.18;2.85;;;13.50;94.40;;;;;;5088251;28;20081;-66
2021/09/19 04:42:24;;;;;;;3.95;2.75;;;13.50;94.40;;;;;;5085635;28;20035;-67
2021/09/19 04:44:50;;;;;;;5.80;3.28;;;13.50;94.40;;;;;;5088538;28;20016;-66
2021/09/19 04:47:16;;;;;;;4.97;2.58;;;13.40;94.20;;;;;;5086315;28;20081;-67
2021/09/19 04:49:41;;;;;;;4.50;2.63;;;13.50;94.20;;;;;;5085791;28;20029;-66
2021/09/19 04:52:07;;;;;;;6.93;2.90;;;13.50;94.20;;;;;;5085697;28;20027;-67
2021/09/19 04:54:33;;;;;;;5.53;3.10;;;13.50;94.10;;;;;;5087267;28;20035;-66
2021/09/19 04:57:00;;;;;;;4.13;2.75;;;13.50;94.00;;;;;;5084845;28;20036;-66
2021/09/19 04:59:26;;;;;;;6.88;3.00;;;13.50;94.10;;;;;;5086011;28;20063;-66
2021/09/19 05:01:51;;;;;;;5.00;2.85;;;13.50;93.70;;;;;;5085220;28;20074;-66
2021/09/19 05:04:17;;;;;;;4.18;2.65;;;13.50;94.00;;;;;;5087429;28;20024;-66
2021/09/19 05:06:43;;;;;;;5.38;3.13;;;13.40;93.80;;;;;;5086363;28;20043;-66
2021/09/19 05:09:09;;;;;;;5.05;2.95;;;13.50;94.00;;;;;;5085938;28;20103;-66
2021/09/19 05:11:35;;;;;;;4.25;2.50;;;13.50;94.00;;;;;;5084122;28;20048;-66
2021/09/19 05:14:01;;;;;;;5.30;3.28;;;13.50;93.90;;;;;;5086723;28;20030;-66
2021/09/19 05:16:27;;;;;;;7.22;3.05;;;13.60;93.90;;;;;;5087935;28;20562;-66
2021/09/19 05:18:55;;;;;;;5.47;2.80;;;13.60;93.90;;;;;;5087597;28;20062;-67
2021/09/19 05:21:21;;;;;;;4.60;2.80;;;13.60;93.90;;;;;;5087225;28;20103;-66
2021/09/19 05:23:47;;;;;;;7.20;2.85;;;13.50;93.80;;;;;;5088109;28;20103;-66
2021/09/19 05:26:12;;;;;;;4.43;2.92;;;13.50;93.80;;;;;;5084715;28;20051;-67
2021/09/19 05:28:38;;;;;;;4.60;2.78;;;13.50;93.70;;;;;;5085884;28;20049;-66
2021/09/19 05:31:04;;;;;;;4.53;2.67;;;13.60;93.90;;;;;;5083669;28;20040;-66
2021/09/19 05:33:29;;;;;;;5.07;2.55;;;13.60;93.70;;;;;;5084499;28;20031;-66
2021/09/19 05:35:55;;;;;;;3.70;2.28;;;13.60;93.30;;;;;;5087887;28;20463;-67
2021/09/19 05:38:21;;;;;;;4.68;2.75;;;13.60;93.10;;;;;;5085039;28;20028;-66
2021/09/19 05:40:47;;;;;;;4.72;2.70;;;13.60;93.00;;;;;;5086348;28;20032;-67
2021/09/19 05:43:12;;;;;;;3.97;2.20;;;13.60;93.00;;;;;;5083634;28;20046;-66
2021/09/19 05:45:38;;;;;;;4.10;2.65;;;13.60;93.00;;;;;;5085620;28;20028;-67
2021/09/19 05:48:05;;;;;;;4.85;2.78;;;13.60;93.10;;;;;;5084875;28;20466;-66
2021/09/19 05:50:30;;;;;;;3.70;2.40;;;13.60;93.20;;;;;;5084058;28;20017;-66
2021/09/19 05:52:56;;;;;;;4.00;2.60;;;13.70;93.10;;;;;;5087030;28;20036;-66
2021/09/19 05:55:22;;;;;;;4.38;2.25;;;13.70;93.10;;;;;;5085324;28;20073;-66
2021/09/19 05:57:47;;;;;;;3.67;2.50;;;13.70;93.10;;;;;;5084397;28;20033;-67
2021/09/19 06:00:13;;;;;;;4.70;2.80;;;13.70;93.10;;;;;;5087844;28;20931;-66
2021/09/19 06:02:39;;;;;;;4.78;2.60;;;13.70;92.80;;;;;;5085361;28;20111;-66
2021/09/19 06:05:06;;;;;;;4.85;2.42;;;13.80;92.90;;;;;;5085485;28;20077;-67
2021/09/19 06:07:32;;;;;;;6.10;2.90;;;13.80;93.00;;;;;;5082744;28;20193;-66
2021/09/19 06:09:58;;;;;;;4.18;2.90;;;13.80;92.80;;;;;;5086666;28;20031;-66
2021/09/19 06:12:24;;;;;;;3.95;2.50;;;13.70;92.70;;;;;;5086645;28;20044;-66
2021/09/19 06:14:49;;;;;;;4.15;2.63;;;13.70;91.40;;;;;;5082184;28;20042;-66
2021/09/19 06:17:16;;;;;;;4.32;2.45;;;13.70;91.70;;;;;;5082299;28;20064;-66
2021/09/19 06:19:42;;;;;;;4.95;2.35;;;13.70;91.30;;;;;;5087327;28;20029;-67
2021/09/19 06:22:08;;;;;;;3.40;2.13;;;13.70;91.10;;;;;;5085741;28;20042;-66
2021/09/19 06:24:34;;;;;;;8.38;2.95;;;13.70;91.20;;;;;;5086350;28;20115;-66
2021/09/19 06:27:01;;;;;;;3.08;2.42;;;13.70;91.20;;;;;;5087978;28;20100;-66
2021/09/19 06:29:27;;;;;;;6.45;2.67;;;13.80;91.30;;;;;;5086920;28;20032;-66
2021/09/19 06:31:53;;;;;;;3.63;2.33;;;13.70;90.90;;;;;;5083926;28;20033;-66
2021/09/19 06:34:19;;;;;;;4.78;2.45;;;13.80;91.00;;;;;;5084313;28;20127;-65
2021/09/19 06:36:44;;;;;;;3.65;2.38;;;13.80;91.00;;;;;;5083599;28;20058;-66
2021/09/19 06:39:10;;;;;;;4.10;2.75;;;13.80;91.00;;;;;;5078203;28;20036;-67
2021/09/19 06:41:36;;;;;;;5.20;2.63;;;13.80;90.80;;;;;;5085375;28;20036;-66
2021/09/19 06:44:02;;;;;;;5.82;2.70;;;13.80;90.50;;;;;;5081161;28;20103;-66
2021/09/19 06:46:31;;;;;;;4.25;2.40;;;13.80;90.70;;;;;;5079842;28;20303;-67
2021/09/19 06:49:02;;;;;;;3.72;2.30;;;13.90;91.10;;;;;;5078939;28;20069;-67
2021/09/19 06:51:28;;;;;;;4.05;2.53;;;14.00;91.80;;;;;;5083665;28;20031;-66
2021/09/19 06:53:54;;;;;;;6.45;2.33;;;14.20;91.50;;;;;;5084097;28;20035;-66
2021/09/19 06:56:21;;;;;;;5.10;2.63;;;14.50;92.20;;;;;;5082605;28;20036;-66
2021/09/19 06:58:50;;;;;;;9.05;2.63;;;14.60;92.10;;;;;;5082573;28;20543;-66
2021/09/19 07:01:16;;;;;;;4.35;2.40;;;14.80;89.70;;;;;;5084363;28;20103;-67
2021/09/19 07:03:43;;;;;;;4.93;2.80;;;14.80;89.30;;;;;;5078574;28;20034;-66
2021/09/19 07:06:09;;;;;;;2.92;2.13;;;14.70;88.80;;;;;;5080508;28;20098;-67
2021/09/19 07:08:34;;;;;;;4.30;2.40;;;14.70;88.60;;;;;;5081138;28;20027;-67
2021/09/19 07:11:01;;;;;;;4.00;2.80;;;14.70;88.00;;;;;;5088307;28;20027;-67
2021/09/19 07:13:27;;;;;;;3.65;2.38;;;14.60;87.00;;;;;;5084290;28;20043;-66
2021/09/19 07:15:53;;;;;;;4.95;2.80;;;14.60;88.20;;;;;;5086095;28;20483;-66
2021/09/19 07:18:25;;;;;;;3.58;2.30;;;14.60;88.60;;;;;;5085640;28;20165;-67
2021/09/19 07:20:55;;;;;;;4.72;2.38;;;14.60;88.70;;;;;;5088617;28;20047;-66
2021/09/19 07:23:24;;;;;;;4.35;2.70;;;14.60;88.50;;;;;;5082813;28;20026;-67
2021/09/19 07:25:51;;;;;;;4.78;2.45;;;14.60;88.70;;;;;;5085886;28;20020;-66
2021/09/19 07:28:18;;;;;;;3.40;2.15;;;14.50;88.40;;;;;;5082506;28;20024;-66
2021/09/19 07:30:44;;;;;;;4.60;2.53;;;14.50;88.50;;;;;;5085978;28;20411;-66
2021/09/19 07:33:10;;;;;;;3.92;2.45;;;14.50;90.20;;;;;;5084791;28;20081;-67
2021/09/19 07:35:36;;;;;;;4.78;2.17;;;14.60;89.10;;;;;;5089247;28;20032;-67
2021/09/19 07:38:03;;;;;;;2.75;1.80;;;14.50;87.40;;;;;;5083973;28;20032;-66
2021/09/19 07:40:31;;;;;;;4.75;2.30;;;14.50;87.20;;;;;;5085095;28;20024;-66
2021/09/19 07:42:59;;;;;;;2.88;1.85;;;14.50;87.30;;;;;;5087916;28;20031;-67
2021/09/19 07:45:26;;;;;;;2.97;2.00;;;14.50;87.60;;;;;;5088627;28;20561;-66
2021/09/19 07:47:53;;;;;;;2.88;1.80;;;14.60;87.70;;;;;;5080195;28;20424;-67
2021/09/19 07:50:19;;;;;;;2.85;1.88;;;14.70;87.50;;;;;;5086905;28;20089;-71
2021/09/19 07:52:46;;;;;;;3.50;1.80;;;14.70;87.80;;;;;;5084910;28;20028;-67
2021/09/19 07:55:15;;;;;;;3.88;2.05;;;14.80;87.50;;;;;;5085843;28;20040;-67
2021/09/19 07:57:44;;;;;;;2.63;1.63;;;14.80;86.20;;;;;;5084086;28;20024;-67
2021/09/19 08:00:10;;;;;;;3.92;2.08;;;14.90;86.50;;;;;;5085053;28;20890;-66
2021/09/19 08:02:36;;;;;;;4.70;2.25;;;14.90;85.80;;;;;;5084636;28;20029;-65
2021/09/19 08:05:02;;;;;;;2.80;1.95;;;14.90;85.60;;;;;;5078956;28;20031;-65
2021/09/19 08:07:28;;;;;;;3.97;2.53;;;14.90;84.30;;;;;;5083681;28;20028;-66
2021/09/19 08:09:54;;;;;;;3.75;1.98;;;14.90;84.30;;;;;;5083439;28;20370;-67
2021/09/19 08:12:20;;;;;;;5.00;2.13;;;14.90;84.00;;;;;;5086124;28;20111;-66
2021/09/19 08:14:46;;;;;;;3.95;2.15;;;15.00;83.80;;;;;;5085553;28;20462;-67
2021/09/19 08:17:12;;;;;;;4.55;2.05;;;15.00;84.20;;;;;;5080405;28;20044;-66
2021/09/19 08:19:38;;;;;;;2.85;2.35;;;15.00;82.40;;;;;;5088753;28;20069;-68
2021/09/19 08:22:04;;;;;;;3.75;1.83;;;15.10;83.30;;;;;;5085453;28;20081;-67
2021/09/19 08:24:29;;;;;;;3.13;2.20;;;15.00;82.70;;;;;;5087842;28;20028;-67
2021/09/19 08:26:55;;;;;;;3.08;2.28;;;15.00;82.30;;;;;;5084710;28;20074;-67
2021/09/19 08:29:22;;;;;;;4.93;1.85;;;15.10;83.40;;;;;;5085343;28;20081;-67
2021/09/19 08:31:49;;;;;;;3.08;1.63;;;15.20;84.00;;;;;;5085297;28;20103;-67
2021/09/19 08:34:15;;;;;;;4.20;2.28;;;15.20;83.60;;;;;;5083574;28;20035;-67
2021/09/19 08:36:41;;;;;;;3.80;2.05;;;15.20;83.00;;;;;;5087339;28;20024;-68
2021/09/19 08:39:08;;;;;;;2.60;1.90;;;15.30;82.70;;;;;;5085530;28;20048;-68
2021/09/19 08:41:36;;;;;;;2.72;1.65;;;15.30;81.60;;;;;;5080898;28;20032;-67
2021/09/19 08:44:03;;;;;;;2.60;1.73;;;15.30;80.20;;;;;;5087857;28;20048;-68
2021/09/19 08:46:30;;;;;;;2.65;1.40;;;15.30;80.60;;;;;;5080909;28;20027;-71
2021/09/19 08:48:56;;;;;;;2.78;1.63;;;15.30;80.80;;;;;;5085090;28;20025;-68
2021/09/19 08:51:22;;;;;;;2.80;1.60;;;15.40;81.50;;;;;;5085840;28;20040;-69
2021/09/19 08:53:48;;;;;;;2.90;1.92;;;15.40;81.60;;;;;;5083077;28;20047;-69
2021/09/19 08:56:22;;;;;;;2.50;1.55;;;15.50;81.00;;;;;;5088845;28;20032;-69
2021/09/19 08:58:47;;;;;;;2.65;1.50;;;15.70;81.60;;;;;;5086136;28;20020;-68
2021/09/19 09:01:13;;;;;;;4.18;1.85;;;15.70;80.90;;;;;;5087765;28;20034;-68
2021/09/19 09:03:40;;;;;;;3.10;2.00;;;15.80;82.00;;;;;;5083088;28;20028;-65
2021/09/19 09:06:07;;;;;;;4.05;1.80;;;15.90;80.80;;;;;;5088394;28;20043;-69
2021/09/19 09:08:34;;;;;;;2.20;1.63;;;16.00;79.70;;;;;;5090869;28;20055;-70
2021/09/19 09:11:05;;;;;;;5.35;1.83;;;16.00;80.20;;;;;;5085774;28;20028;-69
2021/09/19 09:13:42;;;;;;;2.78;1.75;;;16.00;79.30;;;;;;5076700;28;20044;-71
2021/09/19 09:16:11;;;;;;;2.78;1.73;;;16.10;79.60;;;;;;5088443;28;20095;-71
2021/09/19 09:18:42;;;;;;;5.50;2.10;;;16.10;77.90;;;;;;5085560;28;20111;-71
2021/09/19 09:21:08;;;;;;;;;;;16.20;81.30;;;;;;5073944;28;20498;-72
2021/09/19 09:23:48;;;;;;;2.42;1.35;;;16.30;77.50;;;;;;5082792;28;19930;-67
2021/09/19 09:26:33;;;;;;;2.97;1.70;;;16.30;78.20;;;;;;5082221;28;20048;-67
2021/09/19 09:29:02;;;;;;;2.88;1.55;;;16.30;77.70;;;;;;5085834;28;20116;-67
2021/09/19 09:31:29;;;;;;;3.15;1.48;;;16.30;78.10;;;;;;5086415;28;20035;-67
2021/09/19 09:33:57;;;;;;;2.97;1.80;;;16.30;77.20;;;;;;5085435;28;20478;-68
2021/09/19 09:36:39;;;;;;;2.95;1.67;;;16.20;75.70;;;;;;5087071;28;20028;-67
2021/09/19 09:39:32;;;;;;;2.92;1.65;;;16.30;75.80;;;;;;5082114;28;20031;-67
2021/09/19 09:42:05;;;;;;;3.22;1.80;;;16.40;76.10;;;;;;5080519;28;20028;-67
2021/09/19 09:44:41;;;;;;;2.63;1.90;;;16.60;77.70;;;;;;5085104;28;20094;-67
2021/09/19 09:47:22;;;;;;;2.28;1.70;;;16.60;77.90;;;;;;5085849;28;20033;-67
2021/09/19 09:49:49;;;;;;;2.47;1.58;;;16.60;77.00;;;;;;5086264;28;20024;-69
2021/09/19 09:52:32;;;;;;;2.75;1.70;;;16.70;76.80;;;;;;5084566;28;20028;-69
2021/09/19 09:55:00;;;;;;;295.88;219.52;;;16.90;77.40;;;;;;5085603;28;20110;-68
2021/09/19 09:57:43;;;;;;;308.02;255.48;;;16.90;77.70;;;;;;5083230;28;20137;-67
2021/09/19 10:00:18;;;;;;;11.82;8.23;;;17.00;78.10;;;;;;5080889;28;20040;-66
2021/09/19 10:02:48;;;;;;;3.00;2.17;;;17.00;75.40;;;;;;5083033;28;20089;-67
2021/09/19 10:05:15;;;;;;;4.38;2.20;;;16.90;76.40;;;;;;5065165;28;20074;-67
2021/09/19 10:07:44;;;;;;;5.55;1.70;;;16.90;78.40;;;;;;5084960;28;20035;-67
2021/09/19 10:10:13;;;;;;;2.83;1.55;;;17.00;80.10;;;;;;5080249;28;20077;-67
2021/09/19 10:12:40;;;;;;;3.35;2.00;;;17.00;77.80;;;;;;5082908;28;20032;-68
2021/09/19 10:15:07;;;;;;;2.78;1.77;;;17.20;76.40;;;;;;5085114;28;20067;-68
2021/09/19 10:17:33;;;;;;;2.78;1.95;;;17.30;77.50;;;;;;5084737;28;20043;-67
2021/09/19 10:20:03;;;;;;;3.33;1.95;;;17.30;77.50;;;;;;5085344;28;20040;-68
2021/09/19 10:22:33;;;;;;;4.43;1.92;;;17.30;78.10;;;;;;5081002;28;20055;-68
2021/09/19 10:24:59;;;;;;;4.57;2.10;;;17.30;79.30;;;;;;5084476;28;20365;-69
2021/09/19 10:27:33;;;;;;;3.95;2.28;;;17.40;79.70;;;;;;5078102;28;20737;-70
2021/09/19 10:30:10;;;;;;;4.47;2.40;;;17.30;77.30;;;;;;5083717;28;20029;-68
2021/09/19 10:32:39;;;;;;;4.13;1.90;;;17.20;76.70;;;;;;5083342;28;20039;-67
2021/09/19 10:35:18;;;;;;;2.65;2.10;;;17.10;76.40;;;;;;5079611;28;20032;-67
2021/09/19 10:38:04;;;;;;;2.35;1.80;;;17.20;77.50;;;;;;5083601;28;20028;-66
2021/09/19 10:40:36;;;;;;;2.75;1.95;;;17.30;78.10;;;;;;5083285;28;20032;-68
2021/09/19 10:43:14;;;;;;;3.30;2.28;;;17.20;76.30;;;;;;5079894;28;20042;-67
2021/09/19 10:45:43;;;;;;;3.30;2.03;;;17.20;77.00;;;;;;5083659;28;20073;-68
2021/09/19 10:48:17;;;;;;;4.35;2.05;;;17.30;77.70;;;;;;5078999;28;20761;-67
2021/09/19 10:50:45;;;;;;;2.72;1.90;;;17.30;77.40;;;;;;5078884;28;20032;-69
2021/09/19 10:53:37;;;;;;;3.25;1.88;;;17.30;76.40;;;;;;5082932;28;20024;-67
2021/09/19 10:56:04;;;;;;;3.15;1.80;;;17.30;76.70;;;;;;5082112;28;20043;-67
2021/09/19 10:58:38;;;;;;;4.93;2.47;;;17.30;77.50;;;;;;5085328;28;20028;-67
2021/09/19 11:01:27;;;;;;;2.80;1.85;;;17.40;77.60;;;;;;5078454;28;20669;-66
2021/09/19 11:03:59;;;;;;;3.72;2.00;;;17.50;77.50;;;;;;5071033;28;20044;-67
2021/09/19 11:06:36;;;;;;;2.35;1.80;;;17.40;76.40;;;;;;5080679;28;20067;-69
2021/09/19 11:09:25;;;;;;;2.90;2.15;;;17.40;77.00;;;;;;5083735;28;20059;-67
2021/09/19 11:12:06;;;;;;;5.38;2.22;;;17.40;77.40;;;;;;5086211;28;20059;-70
2021/09/19 11:14:54;;;;;;;3.30;1.88;;;17.50;78.10;;;;;;5082665;28;20024;-68
2021/09/19 11:17:24;;;;;;;2.65;1.80;;;17.70;78.70;;;;;;5083191;28;20067;-67
2021/09/19 11:20:12;;;;;;;2.85;2.00;;;17.70;76.90;;;;;;5073459;28;20162;-66
2021/09/19 11:22:39;;;;;;;4.82;1.92;;;17.80;77.10;;;;;;5081294;28;20497;-67
2021/09/19 11:25:06;;;;;;;2.90;1.92;;;17.80;77.10;;;;;;5081405;28;20043;-66
2021/09/19 11:27:32;;;;;;;4.15;2.10;;;17.80;75.50;;;;;;5077476;28;20032;-67
2021/09/19 11:29:58;;;;;;;13.80;10.38;;;17.80;74.90;;;;;;5083416;28;20386;-68
2021/09/19 11:32:25;;;;;;;37.72;33.42;;;17.70;75.40;;;;;;5081404;28;20926;-71
2021/09/19 11:34:51;;;;;;;6.18;3.75;;;17.90;76.10;;;;;;5083325;28;20031;-72
2021/09/19 11:37:17;;;;;;;4.40;2.28;;;17.90;75.00;;;;;;5083133;28;20028;-71
2021/09/19 11:39:44;;;;;;;3.92;2.25;;;17.90;75.20;;;;;;5082728;28;20036;-71
2021/09/19 11:42:12;;;;;;;4.13;2.28;;;18.00;75.40;;;;;;5083146;28;20036;-71
2021/09/19 11:44:47;;;;;;;3.30;2.10;;;18.10;75.10;;;;;;5086969;28;20023;-71
2021/09/19 11:47:15;;;;;;;3.22;1.88;;;18.10;74.80;;;;;;5083569;28;20028;-70
2021/09/19 11:49:42;;;;;;;2.33;1.58;;;18.10;74.80;;;;;;5079201;28;20033;-71
2021/09/19 11:52:08;;;;;;;4.10;2.05;;;18.20;75.80;;;;;;5082585;28;20056;-70
2021/09/19 11:54:34;;;;;;;4.25;2.50;;;18.10;75.20;;;;;;5083380;28;20413;-72
2021/09/19 11:57:00;;;;;;;820.40;558.10;;;17.90;75.50;;;;;;5077016;28;20035;-71
2021/09/19 11:59:26;;;;;;;686.83;475.65;;;17.70;75.90;;;;;;5085672;28;20441;-71
2021/09/19 12:01:55;;;;;;;68.90;46.20;;;17.50;77.20;;;;;;5083556;28;20036;-72
2021/09/19 12:04:21;;;;;;;10.40;6.32;;;17.30;76.00;;;;;;5082713;28;20028;-71
2021/09/19 12:06:48;;;;;;;4.43;3.00;;;17.20;77.60;;;;;;5086105;28;20099;-73
2021/09/19 12:09:19;;;;;;;3.33;2.10;;;17.20;78.30;;;;;;5082456;28;20033;-71
2021/09/19 12:11:50;;;;;;;3.45;1.90;;;17.00;78.50;;;;;;5070101;28;20031;-71
2021/09/19 12:14:18;;;;;;;;;;;16.90;77.70;;;;;;5068889;28;20403;-70
2021/09/19 12:16:56;;;;;;;5.82;2.13;;;16.80;78.60;;;;;;5064635;28;19916;-69
2021/09/19 12:19:21;;;;;;;3.17;1.98;;;16.80;79.40;;;;;;5067859;28;20055;-69
2021/09/19 12:22:15;;;;;;;3.88;1.95;;;16.70;79.60;;;;;;5072464;28;20495;-74
2021/09/19 12:24:41;;;;;;;2.88;2.00;;;16.80;79.70;;;;;;5068093;28;20051;-70
2021/09/19 12:27:19;;;;;;;4.38;2.30;;;16.80;79.50;;;;;;5093512;28;20020;-72
2021/09/19 12:30:05;;;;;;;3.03;2.08;;;16.80;79.20;;;;;;5079779;28;20028;-72
2021/09/19 12:32:36;;;;;;;3.83;2.00;;;16.70;78.70;;;;;;5086715;28;20024;-72
2021/09/19 12:35:04;;;;;;;5.75;2.25;;;16.90;79.40;;;;;;5080710;28;20032;-74
2021/09/19 12:37:41;;;;;;;3.45;1.92;;;17.10;79.50;;;;;;5081004;28;20112;-68
2021/09/19 12:40:11;;;;;;;8.77;2.58;;;17.30;78.60;;;;;;5083867;28;20024;-68
2021/09/19 12:42:37;;;;;;;3.72;1.80;;;17.50;79.70;;;;;;5084556;28;20016;-67
2021/09/19 12:45:09;;;;;;;3.63;2.22;;;17.80;79.60;;;;;;5102469;28;20039;-68
2021/09/19 12:47:34;;;;;;;5.38;1.98;;;18.00;75.50;;;;;;5085023;28;20024;-68
2021/09/19 12:50:00;;;;;;;5.15;2.20;;;18.10;77.20;;;;;;5083131;28;20028;-68